»·PEaware :: KENT10 KSPS-KSPS

KENT10 :: KSPS-KSPS

FLIGHT INFORMATION

Flight Status: Arrived
Operator: Unknown
More flights by this operator :: More flights under this callsign
Pilot: 80 FTW ENJJPT (22981)
Aircraft: Unknown
(T-38)
More flights by this aircraft type
Origin: KSPS Sheppard AFB/Wichita Falls Mu
United States
Destination: KSPS Sheppard AFB/Wichita Falls Mu
United States
More flights between these airports :: More routes between these airports
Route: +FALLS MIKKE KSPS
File this flight plan on PilotEdge
Remarks:
Altitude:
(Current/Filed)
0ft
Speed:
(Current/Filed)
0kts
Departed: 05-Aug-20 07:08 AM
Arrived: 05-Aug-20 08:24 AM
Distance/Time
Traveled:
0nm/1:16
Distance/Time
To Go:
Arrived

Flight Plot

Page will automatically refresh every two minutes.

Flight plan parsing failed; only flown route is shown


Map Options




Map Legend


Flown Route
Filed Route
Departure Airport
Arrival Airport
Navaid (VOR, NDB)
Fix

Horizontal Profiles

Position Reports

Time Latitude Longitude Heading Altitude Ground
Speed
05-Aug-20 07:04 34.003325 -98.500543 70 1027ft 0kts
05-Aug-20 07:05 34.003325 -98.500542 70 1027ft 0kts
05-Aug-20 07:06 34.003326 -98.500541 70 1027ft 0kts
05-Aug-20 07:07 34.000886 -98.498036 160 1027ft 99kts
05-Aug-20 07:08 33.929171 -98.463755 158 3197ft 368kts
05-Aug-20 07:09 33.843693 -98.440365 219 4900ft 310kts
05-Aug-20 07:10 33.864440 -98.532171 302 5051ft 332kts
05-Aug-20 07:11 33.910664 -98.624130 300 4980ft 328kts
05-Aug-20 07:12 33.971073 -98.701414 334 4949ft 320kts
05-Aug-20 07:13 34.050423 -98.748997 339 4061ft 320kts
05-Aug-20 07:14 34.135848 -98.761883 28 2939ft 301kts
05-Aug-20 07:15 34.174333 -98.682383 66 2348ft 252kts
05-Aug-20 07:16 34.186549 -98.604459 113 2363ft 239kts
05-Aug-20 07:17 34.136265 -98.558768 158 2349ft 230kts
05-Aug-20 07:18 34.079097 -98.531624 158 2317ft 200kts
05-Aug-20 07:19 34.029110 -98.508024 158 1451ft 189kts
05-Aug-20 07:20 33.969661 -98.479438 159 2132ft 290kts
05-Aug-20 07:21 33.886119 -98.455199 203 6083ft 316kts
05-Aug-20 07:22 33.861921 -98.552588 264 9112ft 348kts
05-Aug-20 07:23 33.851301 -98.680651 262 11414ft 414kts
05-Aug-20 07:24 33.836005 -98.820154 263 14859ft 431kts
05-Aug-20 07:25 33.824358 -98.966431 266 17784ft 443kts
05-Aug-20 07:26 33.838823 -99.115227 297 19703ft 462kts
05-Aug-20 07:27 33.916760 -99.237978 306 21086ft 465kts
05-Aug-20 07:28 34.004103 -99.368628 321 18299ft 534kts
05-Aug-20 07:29 33.980671 -99.326440 328 12053ft 485kts
05-Aug-20 07:30 33.976412 -99.390000 171 14566ft 249kts
05-Aug-20 07:31 33.974751 -99.447256 173 14654ft 428kts
05-Aug-20 07:32 33.905788 -99.344243 110 15184ft 416kts
05-Aug-20 07:33 33.876591 -99.219653 98 15616ft 373kts
05-Aug-20 07:34 33.913991 -99.122633 12 15070ft 295kts
05-Aug-20 07:35 33.972517 -99.160278 312 14979ft 231kts
05-Aug-20 07:36 33.971109 -99.218575 195 13835ft 201kts
05-Aug-20 07:37 33.913429 -99.220442 177 14498ft 200kts
05-Aug-20 07:38 33.866894 -99.218566 177 15263ft 251kts
05-Aug-20 07:39 33.866894 -99.218566 177 15263ft 251kts
05-Aug-20 07:40 33.839907 -99.219099 186 14962ft 312kts
05-Aug-20 07:41 33.804853 -99.272763 355 13255ft 318kts
05-Aug-20 07:42 33.884410 -99.224169 31 12912ft 370kts
05-Aug-20 07:43 33.884410 -99.224169 31 12912ft 370kts
05-Aug-20 07:44 33.925637 -99.199028 13 12212ft 325kts
05-Aug-20 07:45 33.969655 -99.129638 92 11982ft 283kts
05-Aug-20 07:46 33.963200 -99.026141 112 12342ft 321kts
05-Aug-20 07:47 33.970120 -98.934991 20 12088ft 319kts
05-Aug-20 07:48 34.047067 -98.887173 60 8204ft 300kts
05-Aug-20 07:49 34.077198 -98.788148 75 5405ft 332kts
05-Aug-20 07:50 34.097037 -98.685554 69 2850ft 315kts
05-Aug-20 07:51 34.140765 -98.595605 84 2759ft 299kts
05-Aug-20 07:52 34.090797 -98.541834 160 2056ft 238kts
05-Aug-20 07:53 34.039607 -98.517183 154 1751ft 176kts
05-Aug-20 07:54 34.023763 -98.509341 158 1447ft 174kts
05-Aug-20 07:55 33.991771 -98.493664 158 1130ft 185kts
05-Aug-20 07:56 33.957554 -98.504600 344 2471ft 232kts
05-Aug-20 07:57 34.015076 -98.532856 337 2735ft 185kts
05-Aug-20 07:58 34.007144 -98.501168 156 1077ft 165kts
05-Aug-20 07:59 33.964635 -98.480860 159 1899ft 274kts
05-Aug-20 08:00 33.964635 -98.480860 159 1899ft 274kts
05-Aug-20 08:01 33.964635 -98.480860 159 1899ft 274kts
05-Aug-20 08:02 33.964635 -98.480860 159 1899ft 274kts
05-Aug-20 08:03 33.964635 -98.480860 159 1899ft 274kts
05-Aug-20 08:04 33.964635 -98.480860 159 1899ft 274kts
05-Aug-20 08:05 33.965281 -98.511576 339 2534ft 231kts
05-Aug-20 08:06 34.002902 -98.528199 341 2440ft 199kts
05-Aug-20 08:07 34.021946 -98.508485 159 1393ft 216kts
05-Aug-20 08:08 33.970105 -98.483174 158 1641ft 273kts
05-Aug-20 08:09 33.978692 -98.518307 334 2836ft 222kts
05-Aug-20 08:10 34.026814 -98.522120 101 1615ft 196kts
05-Aug-20 08:11 33.981554 -98.489066 158 1638ft 257kts
05-Aug-20 08:12 33.999586 -98.522371 339 2737ft 244kts
05-Aug-20 08:13 34.035635 -98.558317 243 3164ft 164kts
05-Aug-20 08:14 34.010019 -98.616130 241 3670ft 190kts
05-Aug-20 08:15 33.986071 -98.668030 239 3025ft 167kts
05-Aug-20 08:16 33.946064 -98.690378 124 3757ft 218kts
05-Aug-20 08:17 33.948187 -98.622115 41 3760ft 217kts
05-Aug-20 08:18 33.990108 -98.590472 327 2383ft 182kts
05-Aug-20 08:19 34.032536 -98.622959 333 2749ft 199kts
05-Aug-20 08:20 34.062170 -98.580175 71 2578ft 192kts
05-Aug-20 08:21 34.050817 -98.523934 147 1863ft 192kts
05-Aug-20 08:22 34.006790 -98.501004 157 1077ft 163kts
05-Aug-20 08:23 33.986850 -98.491361 163 1027ft 0kts
05-Aug-20 08:24 33.986848 -98.491361 163 1027ft 0kts
05-Aug-20 08:25 33.986846 -98.491360 163 1027ft 0kts
05-Aug-20 08:26 33.986845 -98.491360 163 1027ft 0kts
05-Aug-20 08:27 33.986843 -98.491359 163 1027ft 0kts
05-Aug-20 08:28 33.986841 -98.491359 163 1027ft 0kts
05-Aug-20 08:29 33.986840 -98.491358 163 1027ft 0kts

Navigation Log

Ident Type
Flight plan parsing failed, navigation log unavailable